createdAt,value
2023-05-24T00:01:00.261Z,13.30
2023-05-24T00:03:30.897Z,13.20
2023-05-24T00:05:59.093Z,13.20
2023-05-24T00:08:28.382Z,13.20
2023-05-24T00:10:56.266Z,13.20
2023-05-24T00:13:24.133Z,13.20
2023-05-24T00:15:52.179Z,13.20
2023-05-24T00:18:20.129Z,13.20
2023-05-24T00:20:48.508Z,13.20
2023-05-24T00:23:17.285Z,13.20
2023-05-24T00:25:46.802Z,13.20
2023-05-24T00:28:14.763Z,13.20
2023-05-24T00:30:42.927Z,13.20
2023-05-24T00:33:11.154Z,13.10
2023-05-24T00:35:39.101Z,13.10
2023-05-24T00:38:06.969Z,13.10
2023-05-24T00:40:34.847Z,13.10
2023-05-24T00:43:04.130Z,13.10
2023-05-24T00:45:33.688Z,13.10
2023-05-24T00:48:01.776Z,13.10
2023-05-24T00:50:29.825Z,13.10
2023-05-24T00:52:59.328Z,13.00
2023-05-24T00:55:27.270Z,13.00
2023-05-24T00:57:56.099Z,13.00
2023-05-24T01:00:25.659Z,13.00
2023-05-24T01:02:54.883Z,12.90
2023-05-24T01:05:23.777Z,12.90
2023-05-24T01:08:00.738Z,13.00
2023-05-24T01:10:33.146Z,12.90
2023-05-24T01:13:05.809Z,12.90
2023-05-24T01:15:42.329Z,12.90
2023-05-24T01:18:12.829Z,12.90
2023-05-24T01:20:41.510Z,12.90
2023-05-24T01:23:19.616Z,12.90
2023-05-24T01:25:55.044Z,12.90
2023-05-24T01:28:25.053Z,12.80
2023-05-24T01:30:53.378Z,12.80
2023-05-24T01:33:21.778Z,12.80
2023-05-24T01:35:49.717Z,12.80
2023-05-24T01:38:17.641Z,12.80
2023-05-24T01:40:47.302Z,12.80
2023-05-24T01:43:16.605Z,12.80
2023-05-24T01:45:49.705Z,12.80
2023-05-24T01:48:20.480Z,12.80
2023-05-24T01:50:50.608Z,12.80
2023-05-24T01:53:19.713Z,12.80
2023-05-24T01:55:49.642Z,12.70
2023-05-24T01:58:18.095Z,12.70
2023-05-24T02:00:47.536Z,12.70
2023-05-24T02:03:16.008Z,12.70
2023-05-24T02:05:44.881Z,12.70
2023-05-24T02:08:13.109Z,12.60
2023-05-24T02:10:41.515Z,12.60
2023-05-24T02:13:10.079Z,12.60
2023-05-24T02:15:37.968Z,12.60
2023-05-24T02:18:08.828Z,12.60
2023-05-24T02:20:37.858Z,12.60
2023-05-24T02:23:05.939Z,12.60
2023-05-24T02:25:34.148Z,12.50
2023-05-24T02:28:02.023Z,12.50
2023-05-24T02:30:29.918Z,12.50
2023-05-24T02:32:58.338Z,12.50
2023-05-24T02:35:28.056Z,12.40
2023-05-24T02:37:58.605Z,12.40
2023-05-24T02:40:26.669Z,12.40
2023-05-24T02:42:54.568Z,12.40
2023-05-24T02:45:22.421Z,12.30
2023-05-24T02:47:50.488Z,12.30
2023-05-24T02:50:18.562Z,12.30
2023-05-24T02:52:47.838Z,12.30
2023-05-24T02:55:15.747Z,12.20
2023-05-24T02:57:43.664Z,12.10
2023-05-24T03:00:12.739Z,12.10
2023-05-24T03:02:41.369Z,12.00
2023-05-24T03:05:09.583Z,12.00
2023-05-24T03:07:37.533Z,12.00
2023-05-24T03:10:07.449Z,12.00
2023-05-24T03:12:35.439Z,12.00
2023-05-24T03:15:03.530Z,12.00
2023-05-24T03:17:31.423Z,11.90
2023-05-24T03:19:59.619Z,11.90
2023-05-24T03:22:27.643Z,11.90
2023-05-24T03:24:56.252Z,11.90
2023-05-24T03:27:25.589Z,11.90
2023-05-24T03:29:53.513Z,11.90
2023-05-24T03:32:21.402Z,11.90
2023-05-24T03:34:49.337Z,11.90
2023-05-24T03:37:17.308Z,11.80
2023-05-24T03:39:45.212Z,11.80
2023-05-24T03:42:13.141Z,11.80
2023-05-24T03:44:42.421Z,11.80
2023-05-24T03:47:10.410Z,11.80
2023-05-24T03:49:38.356Z,11.70
2023-05-24T03:52:06.387Z,11.70
2023-05-24T03:54:34.319Z,11.70
2023-05-24T03:57:02.591Z,11.70
2023-05-24T03:59:30.852Z,11.70
2023-05-24T04:02:00.120Z,11.70
2023-05-24T04:04:28.241Z,11.70
2023-05-24T04:06:56.232Z,11.60
2023-05-24T04:09:24.181Z,11.60
2023-05-24T04:11:52.133Z,11.60
2023-05-24T04:14:20.040Z,11.60
2023-05-24T04:16:48.387Z,11.70
2023-05-24T04:19:17.654Z,11.60
2023-05-24T04:21:46.389Z,11.60
2023-05-24T04:24:14.373Z,11.60
2023-05-24T04:26:42.337Z,11.70
2023-05-24T04:29:10.333Z,11.70
2023-05-24T04:31:38.278Z,11.60
2023-05-24T04:34:07.798Z,11.70
2023-05-24T04:36:37.461Z,11.60
2023-05-24T04:39:05.787Z,11.60
2023-05-24T04:41:35.732Z,11.60
2023-05-24T04:44:03.651Z,11.60
2023-05-24T04:46:31.617Z,11.60
2023-05-24T04:48:59.629Z,11.70
2023-05-24T04:51:27.661Z,11.70
2023-05-24T04:53:56.956Z,11.70
2023-05-24T04:56:24.892Z,11.80
2023-05-24T04:58:52.886Z,11.80
2023-05-24T05:01:21.681Z,11.80
2023-05-24T05:03:49.787Z,11.80
2023-05-24T05:06:17.757Z,11.90
2023-05-24T05:08:45.722Z,12.00
2023-05-24T05:11:15.238Z,12.10
2023-05-24T05:13:43.261Z,12.10
2023-05-24T05:16:11.247Z,12.10
2023-05-24T05:18:39.266Z,12.20
2023-05-24T05:21:07.328Z,12.20
2023-05-24T05:23:36.290Z,12.30
2023-05-24T05:26:04.172Z,12.30
2023-05-24T05:28:33.505Z,12.40
2023-05-24T05:31:01.447Z,12.40
2023-05-24T05:33:29.410Z,12.40
2023-05-24T05:35:57.467Z,12.60
2023-05-24T05:38:25.404Z,12.60
2023-05-24T05:40:53.428Z,12.70
2023-05-24T05:43:21.544Z,12.70
2023-05-24T05:45:50.906Z,12.70
2023-05-24T05:48:18.978Z,12.70
2023-05-24T05:50:46.916Z,12.80
2023-05-24T05:53:15.997Z,12.80
2023-05-24T05:55:43.885Z,12.90
2023-05-24T05:58:11.986Z,12.90
2023-05-24T06:00:39.978Z,13.00
2023-05-24T06:03:09.336Z,13.10
2023-05-24T06:05:37.336Z,13.00
2023-05-24T06:08:05.282Z,13.10
2023-05-24T06:10:33.285Z,13.10
2023-05-24T06:13:02.582Z,13.20
2023-05-24T06:15:30.557Z,13.20
2023-05-24T06:17:58.561Z,13.30
2023-05-24T06:20:28.037Z,13.40
2023-05-24T06:22:57.032Z,13.50
2023-05-24T06:25:25.335Z,13.50
2023-05-24T06:27:53.236Z,13.60
2023-05-24T06:30:21.785Z,13.60
2023-05-24T06:32:49.843Z,13.70
2023-05-24T06:35:17.826Z,13.80
2023-05-24T06:37:47.179Z,13.90
2023-05-24T06:40:15.068Z,14.00
2023-05-24T06:42:42.998Z,14.20
2023-05-24T06:45:11.391Z,14.20
2023-05-24T06:47:39.335Z,14.10
2023-05-24T06:50:08.717Z,14.00
2023-05-24T06:52:36.766Z,14.00
2023-05-24T06:55:06.581Z,13.90
2023-05-24T06:57:34.479Z,13.80
2023-05-24T07:00:02.525Z,13.70
2023-05-24T07:02:30.515Z,13.70
2023-05-24T07:04:58.860Z,13.60
2023-05-24T07:07:26.870Z,13.60
2023-05-24T07:09:54.824Z,13.60
2023-05-24T07:12:24.613Z,13.50
2023-05-24T07:14:53.299Z,13.60
2023-05-24T07:17:21.230Z,13.60
2023-05-24T07:19:49.165Z,13.50
2023-05-24T07:22:17.264Z,13.50
2023-05-24T07:24:45.166Z,13.50
2023-05-24T07:27:13.150Z,13.50
2023-05-24T07:29:42.441Z,13.50
2023-05-24T07:32:10.363Z,13.50
2023-05-24T07:34:39.722Z,13.50
2023-05-24T07:37:07.760Z,13.60
2023-05-24T07:39:35.708Z,13.70
2023-05-24T07:42:03.718Z,13.80
2023-05-24T07:44:31.751Z,13.80
2023-05-24T07:47:02.434Z,14.00
2023-05-24T07:49:30.364Z,14.00
2023-05-24T07:51:59.709Z,14.00
2023-05-24T07:54:27.749Z,14.10
2023-05-24T07:56:57.355Z,14.20
2023-05-24T07:59:25.309Z,14.30
2023-05-24T08:01:53.989Z,14.40
2023-05-24T08:04:23.876Z,14.50
2023-05-24T08:06:52.110Z,14.50
2023-05-24T08:09:20.092Z,14.50
2023-05-24T08:11:48.008Z,14.60
2023-05-24T08:14:15.978Z,14.60
2023-05-24T08:16:43.997Z,14.60
2023-05-24T08:19:12.106Z,14.70
2023-05-24T08:21:42.072Z,14.80
2023-05-24T08:24:10.025Z,14.90
2023-05-24T08:26:38.116Z,15.00
2023-05-24T08:29:06.197Z,15.10
2023-05-24T08:31:34.194Z,15.20
2023-05-24T08:34:02.754Z,15.30
2023-05-24T08:36:30.684Z,15.30
2023-05-24T08:39:00.193Z,15.30
2023-05-24T08:41:29.496Z,15.40
2023-05-24T08:43:59.941Z,15.40
2023-05-24T08:46:27.955Z,15.40
2023-05-24T08:48:56.468Z,15.30
2023-05-24T08:51:27.268Z,15.40
2023-05-24T08:53:56.231Z,15.40
2023-05-24T08:56:26.455Z,15.40
2023-05-24T08:58:55.130Z,15.40
2023-05-24T09:01:24.611Z,15.40
2023-05-24T09:03:52.766Z,15.40
2023-05-24T09:06:20.844Z,15.40
2023-05-24T09:08:52.449Z,15.40
2023-05-24T09:11:21.028Z,15.40
2023-05-24T09:13:50.561Z,15.50
2023-05-24T09:16:18.542Z,15.50
2023-05-24T09:18:46.776Z,15.70
2023-05-24T09:21:14.811Z,15.80
2023-05-24T09:23:42.819Z,15.80
2023-05-24T09:26:11.612Z,15.80
2023-05-24T09:28:41.706Z,15.70
2023-05-24T09:31:12.339Z,15.60
2023-05-24T09:33:40.682Z,15.60
2023-05-24T09:36:09.255Z,15.60
2023-05-24T09:38:37.309Z,15.60
2023-05-24T09:41:06.418Z,15.70
2023-05-24T09:43:36.236Z,15.80
2023-05-24T09:46:04.895Z,15.80
2023-05-24T09:48:34.417Z,15.80
2023-05-24T09:51:05.904Z,15.90
2023-05-24T09:53:34.982Z,16.00
2023-05-24T09:56:05.158Z,16.00
2023-05-24T09:58:34.029Z,16.20
2023-05-24T10:01:06.154Z,16.20
2023-05-24T10:03:35.739Z,16.20
2023-05-24T10:06:07.339Z,15.90
2023-05-24T10:08:35.848Z,15.80
2023-05-24T10:11:04.280Z,15.70
2023-05-24T10:13:33.571Z,15.70
2023-05-24T10:16:01.529Z,15.60
2023-05-24T10:18:30.132Z,15.60
2023-05-24T10:21:00.901Z,15.50
2023-05-24T10:23:31.011Z,15.50
2023-05-24T10:26:04.314Z,15.50
2023-05-24T10:28:32.600Z,15.40
2023-05-24T10:31:03.450Z,15.40
2023-05-24T10:33:31.987Z,15.40
2023-05-24T10:36:01.370Z,15.40
2023-05-24T10:38:30.824Z,15.30
2023-05-24T10:40:58.958Z,15.30
2023-05-24T10:43:27.208Z,15.30
2023-05-24T10:45:56.535Z,15.30
2023-05-24T10:48:36.201Z,15.30
2023-05-24T10:51:22.798Z,15.30
2023-05-24T10:53:52.138Z,15.40
2023-05-24T10:56:23.495Z,15.50
2023-05-24T10:59:00.240Z,15.60
2023-05-24T11:01:29.110Z,15.80
2023-05-24T11:04:07.806Z,16.10
2023-05-24T11:06:49.610Z,16.30
2023-05-24T11:09:20.243Z,16.50
2023-05-24T11:11:49.789Z,16.70
2023-05-24T11:14:19.659Z,16.70
2023-05-24T11:16:50.080Z,17.00
2023-05-24T11:19:18.936Z,17.20
2023-05-24T11:21:47.232Z,17.40
2023-05-24T11:24:15.164Z,17.30
2023-05-24T11:26:44.752Z,17.20
2023-05-24T11:29:17.519Z,17.20
2023-05-24T11:31:48.530Z,17.00
2023-05-24T11:34:17.319Z,17.00
2023-05-24T11:36:46.020Z,17.10
2023-05-24T11:39:14.137Z,17.20
2023-05-24T11:41:42.104Z,17.40
2023-05-24T11:44:12.013Z,17.50
2023-05-24T11:46:40.230Z,17.60
2023-05-24T11:49:08.401Z,17.70
2023-05-24T11:51:37.525Z,18.00
2023-05-24T11:54:05.527Z,18.40
2023-05-24T11:56:34.227Z,18.50
2023-05-24T11:59:16.331Z,18.50
2023-05-24T12:01:44.696Z,18.50
2023-05-24T12:04:13.250Z,18.40
2023-05-24T12:06:41.903Z,18.30
2023-05-24T12:09:13.322Z,18.10
2023-05-24T12:11:42.256Z,17.90
2023-05-24T12:14:14.706Z,17.80
2023-05-24T12:16:43.620Z,17.70
2023-05-24T12:19:20.294Z,17.70
2023-05-24T12:22:00.445Z,17.80
2023-05-24T12:24:29.022Z,17.80
2023-05-24T12:26:59.495Z,18.00
2023-05-24T12:29:28.909Z,18.20
2023-05-24T12:31:56.834Z,18.40
2023-05-24T12:34:25.313Z,18.60
2023-05-24T12:36:54.184Z,18.90
2023-05-24T12:39:22.870Z,18.90
2023-05-24T12:41:54.322Z,18.90
2023-05-24T12:44:26.649Z,19.00
2023-05-24T12:46:56.449Z,19.10
2023-05-24T12:49:24.702Z,19.20
2023-05-24T12:51:53.127Z,19.40
2023-05-24T12:54:23.487Z,19.70
2023-05-24T12:56:54.121Z,20.00
2023-05-24T12:59:23.711Z,20.20
2023-05-24T13:01:52.426Z,20.40
2023-05-24T13:04:23.245Z,20.40
2023-05-24T13:06:51.316Z,20.80
2023-05-24T13:09:21.458Z,21.00
2023-05-24T13:11:49.660Z,21.50
2023-05-24T13:14:18.251Z,21.80
2023-05-24T13:16:46.372Z,21.60
2023-05-24T13:19:14.592Z,21.40
2023-05-24T13:21:44.037Z,21.20
2023-05-24T13:24:12.486Z,21.20
2023-05-24T13:26:40.604Z,21.10
2023-05-24T13:29:32.368Z,21.00
2023-05-24T13:31:56.652Z,21.40
2023-05-24T13:34:25.833Z,21.40
2023-05-24T13:36:55.626Z,21.10
2023-05-24T13:39:24.893Z,20.70
2023-05-24T13:41:53.041Z,20.40
2023-05-24T13:44:21.427Z,20.30
2023-05-24T13:46:49.355Z,20.30
2023-05-24T13:49:17.278Z,20.30
2023-05-24T13:51:45.483Z,20.40
2023-05-24T13:54:14.896Z,20.60
2023-05-24T13:56:44.767Z,20.60
2023-05-24T13:59:13.011Z,20.70
2023-05-24T14:01:41.322Z,21.50
2023-05-24T14:04:09.571Z,22.20
2023-05-24T14:06:38.432Z,22.80
2023-05-24T14:09:08.378Z,23.30
2023-05-24T14:11:39.240Z,23.70
2023-05-24T14:16:52.200Z,24.20
2023-05-24T14:19:20.261Z,24.60
2023-05-24T14:21:48.215Z,24.80
2023-05-24T14:24:16.234Z,24.80
2023-05-24T14:26:47.489Z,24.20
2023-05-24T14:29:17.954Z,23.50
2023-05-24T14:31:47.336Z,22.90
2023-05-24T14:34:15.398Z,22.40
2023-05-24T14:36:43.363Z,22.10
2023-05-24T14:39:13.508Z,22.10
2023-05-24T14:41:41.403Z,22.30
2023-05-24T14:44:11.434Z,22.70
2023-05-24T14:46:39.405Z,22.70
2023-05-24T14:49:13.161Z,22.80
2023-05-24T14:51:48.475Z,22.90
2023-05-24T14:54:19.510Z,23.00
2023-05-24T14:56:47.448Z,23.10
2023-05-24T14:59:17.220Z,23.20
2023-05-24T15:01:45.151Z,23.40
2023-05-24T15:04:13.310Z,23.40
2023-05-24T15:06:41.209Z,23.60
2023-05-24T15:09:09.074Z,23.80
2023-05-24T15:11:37.794Z,23.90
2023-05-24T15:14:05.730Z,23.90
2023-05-24T15:16:35.134Z,24.00
2023-05-24T15:19:03.480Z,24.10
2023-05-24T15:21:31.425Z,24.00
2023-05-24T15:23:59.386Z,24.00
2023-05-24T15:26:27.455Z,24.00
2023-05-24T15:28:55.385Z,23.70
2023-05-24T15:31:23.390Z,23.40
2023-05-24T15:33:52.689Z,23.30
2023-05-24T15:36:20.650Z,23.30
2023-05-24T15:38:48.566Z,23.40
2023-05-24T15:41:16.593Z,23.60
2023-05-24T15:43:44.595Z,23.90
2023-05-24T15:46:12.499Z,24.10
2023-05-24T15:48:40.527Z,24.20
2023-05-24T15:53:40.723Z,23.40
2023-05-24T15:56:08.846Z,22.90
2023-05-24T15:58:36.724Z,22.60
2023-05-24T16:01:04.674Z,22.30
2023-05-24T16:03:32.800Z,22.20
2023-05-24T16:06:00.979Z,22.10
2023-05-24T16:08:30.370Z,22.10
2023-05-24T16:10:58.662Z,22.00
2023-05-24T16:13:27.172Z,21.90
2023-05-24T16:15:55.086Z,21.70
2023-05-24T16:18:23.696Z,21.50
2023-05-24T16:20:51.956Z,21.30
2023-05-24T16:23:20.303Z,21.10
2023-05-24T16:25:50.027Z,20.90
2023-05-24T16:28:17.967Z,20.60
2023-05-24T16:30:46.028Z,20.40
2023-05-24T16:33:14.011Z,20.20
2023-05-24T16:35:41.909Z,20.10
2023-05-24T16:38:09.814Z,19.90
2023-05-24T16:40:37.709Z,19.70
2023-05-24T16:43:06.952Z,19.50
2023-05-24T16:45:34.881Z,19.40
2023-05-24T16:48:02.929Z,19.30
2023-05-24T16:50:30.842Z,19.20
2023-05-24T16:52:58.933Z,19.10
2023-05-24T16:55:26.859Z,19.00
2023-05-24T16:57:54.821Z,18.90
2023-05-24T17:00:24.116Z,18.90
2023-05-24T17:02:52.093Z,18.80
2023-05-24T17:05:20.378Z,18.70
2023-05-24T17:07:48.308Z,18.70
2023-05-24T17:10:16.203Z,18.60
2023-05-24T17:12:44.253Z,18.60
2023-05-24T17:15:12.691Z,18.50
2023-05-24T17:17:41.985Z,18.50
2023-05-24T17:20:10.147Z,18.40
2023-05-24T17:22:38.164Z,18.30
2023-05-24T17:25:06.687Z,18.20
2023-05-24T17:27:34.672Z,18.10
2023-05-24T17:30:02.683Z,17.90
2023-05-24T17:32:31.215Z,17.80
2023-05-24T17:35:00.556Z,17.70
2023-05-24T17:37:28.418Z,17.50
2023-05-24T17:39:56.332Z,17.40
2023-05-24T17:44:52.664Z,17.10
2023-05-24T17:47:20.808Z,17.00
2023-05-24T17:49:48.717Z,16.90
2023-05-24T17:52:17.923Z,16.70
2023-05-24T17:54:45.872Z,16.70
2023-05-24T17:57:13.724Z,16.50
2023-05-24T17:59:41.629Z,16.40
2023-05-24T18:02:09.505Z,16.30
2023-05-24T18:04:37.495Z,16.20
2023-05-24T18:07:05.585Z,16.10
2023-05-24T18:09:34.903Z,16.10
2023-05-24T18:12:02.819Z,16.00
2023-05-24T18:14:32.187Z,15.90
2023-05-24T18:17:00.304Z,15.80
2023-05-24T18:19:28.204Z,15.70
2023-05-24T18:21:56.123Z,15.60
2023-05-24T18:24:24.035Z,15.50
2023-05-24T18:26:53.317Z,15.40
2023-05-24T18:29:21.253Z,15.30
2023-05-24T18:31:49.595Z,15.20
2023-05-24T18:34:17.798Z,15.10
2023-05-24T18:36:45.787Z,15.00
2023-05-24T18:39:13.651Z,14.80
2023-05-24T18:41:41.723Z,14.70
2023-05-24T18:44:10.974Z,14.60
2023-05-24T18:46:38.920Z,14.50
2023-05-24T18:49:10.897Z,14.40
2023-05-24T18:51:39.214Z,14.30
2023-05-24T18:54:07.367Z,14.10
2023-05-24T18:56:37.248Z,14.00
2023-05-24T18:59:05.229Z,13.90
2023-05-24T19:01:34.711Z,13.80
2023-05-24T19:04:02.690Z,13.70
2023-05-24T19:06:31.155Z,13.50
2023-05-24T19:09:00.150Z,13.40
2023-05-24T19:11:28.130Z,13.30
2023-05-24T19:13:56.051Z,13.20
2023-05-24T19:16:24.034Z,13.10
2023-05-24T19:18:53.359Z,13.10
2023-05-24T19:21:23.885Z,13.00
2023-05-24T19:23:51.799Z,12.90
2023-05-24T19:26:19.737Z,12.80
2023-05-24T19:28:50.514Z,12.70
2023-05-24T19:31:18.454Z,12.60
2023-05-24T19:33:59.971Z,12.60
2023-05-24T19:36:32.846Z,12.40
2023-05-24T19:39:00.800Z,12.40
2023-05-24T19:41:28.670Z,12.30
2023-05-24T19:43:58.449Z,12.30
2023-05-24T19:46:26.628Z,12.20
2023-05-24T19:48:54.540Z,12.20
2023-05-24T19:51:22.729Z,12.20
2023-05-24T19:53:51.948Z,12.20
2023-05-24T19:56:20.734Z,12.20
2023-05-24T19:58:48.680Z,12.20
2023-05-24T20:01:16.693Z,12.20
2023-05-24T20:03:48.354Z,12.20
2023-05-24T20:06:16.830Z,12.20
2023-05-24T20:08:44.804Z,12.20
2023-05-24T20:11:14.411Z,12.20
2023-05-24T20:13:42.301Z,12.20
2023-05-24T20:16:10.238Z,12.20
2023-05-24T20:18:38.169Z,12.20
2023-05-24T20:21:06.060Z,12.20
2023-05-24T20:23:33.966Z,12.20
2023-05-24T20:26:01.870Z,12.20
2023-05-24T20:28:32.089Z,12.20
2023-05-24T20:31:00.439Z,12.20
2023-05-24T20:33:28.429Z,12.20
2023-05-24T20:35:56.404Z,12.20
2023-05-24T20:38:24.383Z,12.20
2023-05-24T20:40:52.401Z,12.20
2023-05-24T20:43:20.616Z,12.20
2023-05-24T20:45:49.915Z,12.10
2023-05-24T20:48:17.879Z,12.10
2023-05-24T20:50:45.772Z,12.10
2023-05-24T20:53:13.671Z,12.10
2023-05-24T21:09:37.311Z,12.10
2023-05-24T21:12:06.349Z,12.00
2023-05-24T21:42:19.021Z,11.90
2023-05-24T21:44:46.934Z,11.90
2023-05-24T21:47:15.072Z,11.90
2023-05-24T21:49:42.957Z,11.90
2023-05-24T21:52:10.832Z,11.90
2023-05-24T21:54:38.679Z,11.90
2023-05-24T21:57:07.241Z,11.90
2023-05-24T21:59:36.693Z,11.80
2023-05-24T22:02:04.770Z,11.80
2023-05-24T22:04:32.740Z,11.80
2023-05-24T22:07:00.656Z,11.80
2023-05-24T22:09:28.637Z,11.80
2023-05-24T22:11:56.498Z,11.80
2023-05-24T22:14:24.467Z,11.70
2023-05-24T22:16:53.806Z,11.70
2023-05-24T22:19:35.744Z,11.70
2023-05-24T22:22:07.672Z,11.70
2023-05-24T22:24:35.694Z,11.70
2023-05-24T22:27:03.829Z,11.70
2023-05-24T22:29:31.820Z,11.70
2023-05-24T22:32:01.121Z,11.60
2023-05-24T22:34:29.644Z,11.60
2023-05-24T22:36:58.154Z,11.60
2023-05-24T22:39:26.065Z,11.60
2023-05-24T22:41:54.152Z,11.60
2023-05-24T22:44:22.063Z,11.60
2023-05-24T22:46:50.202Z,11.60
2023-05-24T22:49:20.237Z,11.50
2023-05-24T22:51:48.549Z,11.60
2023-05-24T22:54:16.645Z,11.50
2023-05-24T22:56:44.785Z,11.40
2023-05-24T22:59:12.668Z,11.50
2023-05-24T23:01:40.579Z,11.50
2023-05-24T23:04:20.749Z,11.40
2023-05-24T23:06:52.831Z,11.40
2023-05-24T23:09:34.052Z,11.40
2023-05-24T23:12:02.311Z,11.40
2023-05-24T23:14:31.214Z,11.40
2023-05-24T23:17:02.516Z,11.40
2023-05-24T23:19:31.077Z,11.40
2023-05-24T23:22:00.497Z,11.40
2023-05-24T23:24:28.375Z,11.40
2023-05-24T23:26:57.083Z,11.30
2023-05-24T23:29:25.001Z,11.30
2023-05-24T23:31:52.902Z,11.30
2023-05-24T23:34:20.758Z,11.20
2023-05-24T23:36:48.689Z,11.20
2023-05-24T23:39:17.984Z,11.20
2023-05-24T23:41:46.034Z,11.20
2023-05-24T23:44:13.928Z,11.10
2023-05-24T23:46:42.495Z,11.20
2023-05-24T23:49:10.488Z,11.10
2023-05-24T23:51:38.440Z,11.10
2023-05-24T23:54:06.634Z,11.10
2023-05-24T23:56:36.888Z,11.10
2023-05-24T23:59:04.774Z,11.10
